createdAt,value
2019-05-21T00:02:06.599Z,15.10
2019-05-21T00:04:36.371Z,14.90
2019-05-21T00:07:06.372Z,14.80
2019-05-21T00:09:36.349Z,14.80
2019-05-21T00:12:06.303Z,14.80
2019-05-21T00:14:36.236Z,14.70
2019-05-21T00:17:05.887Z,14.70
2019-05-21T00:19:35.676Z,14.70
2019-05-21T00:22:05.339Z,14.70
2019-05-21T00:24:35.134Z,14.80
2019-05-21T00:27:15.511Z,14.70
2019-05-21T00:30:22.769Z,14.80
2019-05-21T00:33:29.107Z,14.90
2019-05-21T00:36:36.498Z,14.90
2019-05-21T00:39:42.975Z,15.00
2019-05-21T00:42:16.154Z,15.00
2019-05-21T00:44:45.951Z,15.00
2019-05-21T00:47:15.751Z,15.00
2019-05-21T00:49:45.589Z,15.00
2019-05-21T00:52:15.799Z,14.90
2019-05-21T00:54:45.572Z,14.90
2019-05-21T00:57:15.795Z,14.80
2019-05-21T00:59:45.942Z,14.90
2019-05-21T01:02:15.805Z,14.80
2019-05-21T01:04:59.748Z,14.80
2019-05-21T01:07:17.066Z,14.80
2019-05-21T01:09:46.906Z,14.80
2019-05-21T01:12:16.727Z,14.70
2019-05-21T01:14:46.526Z,14.70
2019-05-21T01:17:16.632Z,14.60
2019-05-21T01:19:46.383Z,14.60
2019-05-21T01:22:16.998Z,14.60
2019-05-21T01:24:46.756Z,14.60
2019-05-21T01:27:16.654Z,14.60
2019-05-21T01:29:47.069Z,14.60
2019-05-21T01:32:16.847Z,14.60
2019-05-21T01:34:46.758Z,14.60
2019-05-21T01:37:16.750Z,14.60
2019-05-21T01:39:49.485Z,14.60
2019-05-21T01:42:19.474Z,14.60
2019-05-21T01:44:49.353Z,14.60
2019-05-21T01:47:19.098Z,14.60
2019-05-21T01:49:49.255Z,14.70
2019-05-21T01:52:19.506Z,14.60
2019-05-21T01:54:49.392Z,14.60
2019-05-21T01:57:19.695Z,14.60
2019-05-21T01:59:49.870Z,14.50
2019-05-21T02:02:19.900Z,14.50
2019-05-21T02:04:50.435Z,14.50
2019-05-21T02:07:20.225Z,14.50
2019-05-21T02:09:58.848Z,14.50
2019-05-21T02:12:28.686Z,14.50
2019-05-21T02:14:58.540Z,14.40
2019-05-21T02:17:28.331Z,14.40
2019-05-21T02:19:58.135Z,14.40
2019-05-21T02:22:27.973Z,14.40
2019-05-21T02:24:57.824Z,14.40
2019-05-21T02:27:27.649Z,14.40
2019-05-21T02:29:57.514Z,14.30
2019-05-21T02:32:27.527Z,14.20
2019-05-21T02:34:57.677Z,14.20
2019-05-21T02:37:27.956Z,14.20
2019-05-21T02:39:57.703Z,14.20
2019-05-21T02:42:27.914Z,14.20
2019-05-21T02:45:02.454Z,14.20
2019-05-21T02:47:32.559Z,14.20
2019-05-21T02:50:02.397Z,14.20
2019-05-21T02:52:32.151Z,14.20
2019-05-21T02:55:02.082Z,14.10
2019-05-21T02:57:43.501Z,14.00
2019-05-21T03:00:38.460Z,14.00
2019-05-21T03:03:09.492Z,13.90
2019-05-21T03:05:39.410Z,13.90
2019-05-21T03:08:09.247Z,13.90
2019-05-21T03:10:39.106Z,13.90
2019-05-21T03:13:08.933Z,13.90
2019-05-21T03:15:38.906Z,14.00
2019-05-21T03:18:08.749Z,14.00
2019-05-21T03:20:38.827Z,14.00
2019-05-21T03:23:08.581Z,14.00
2019-05-21T03:25:38.744Z,14.00
2019-05-21T03:28:08.559Z,14.10
2019-05-21T03:30:38.903Z,14.10
2019-05-21T03:33:08.704Z,14.10
2019-05-21T03:35:39.180Z,14.20
2019-05-21T03:38:09.347Z,14.00
2019-05-21T03:40:39.317Z,13.90
2019-05-21T03:43:09.146Z,13.80
2019-05-21T03:45:39.001Z,13.70
2019-05-21T03:48:09.329Z,13.80
2019-05-21T03:50:39.176Z,13.90
2019-05-21T03:53:09.091Z,13.90
2019-05-21T03:55:39.009Z,13.90
2019-05-21T03:58:09.703Z,14.00
2019-05-21T04:00:39.602Z,14.10
2019-05-21T04:03:09.460Z,14.20
2019-05-21T04:05:39.564Z,14.20
2019-05-21T04:08:09.335Z,14.30
2019-05-21T04:10:39.109Z,14.20
2019-05-21T04:13:09.448Z,14.20
2019-05-21T04:15:54.575Z,14.30
2019-05-21T04:18:41.211Z,14.20
2019-05-21T04:21:11.283Z,14.20
2019-05-21T04:23:41.183Z,14.20
2019-05-21T04:26:10.997Z,14.20
2019-05-21T04:28:44.788Z,14.20
2019-05-21T04:31:24.167Z,14.20
2019-05-21T04:33:54.192Z,14.20
2019-05-21T04:36:24.286Z,14.20
2019-05-21T04:45:31.744Z,14.10
2019-05-21T04:48:17.867Z,14.10
2019-05-21T04:57:53.496Z,14.10
2019-05-21T05:00:46.282Z,14.20
2019-05-21T05:03:16.128Z,14.30
2019-05-21T05:05:57.319Z,14.30
2019-05-21T05:08:31.573Z,14.40
2019-05-21T05:11:17.750Z,14.40
2019-05-21T05:13:51.313Z,14.40
2019-05-21T05:16:27.511Z,14.30
2019-05-21T05:18:57.829Z,14.40
2019-05-21T05:21:35.474Z,14.30
2019-05-21T05:24:05.699Z,14.40
2019-05-21T05:27:22.517Z,14.40
2019-05-21T05:29:58.705Z,14.40
2019-05-21T05:33:09.943Z,14.40
2019-05-21T05:35:20.653Z,14.50
2019-05-21T05:37:56.068Z,14.50
2019-05-21T05:40:32.376Z,14.60
2019-05-21T05:46:13.477Z,14.70
2019-05-21T05:48:45.119Z,14.60
2019-05-21T05:51:24.635Z,14.70
2019-05-21T05:54:00.600Z,14.70
2019-05-21T05:56:37.694Z,14.70
2019-05-21T05:59:07.848Z,14.70
2019-05-21T06:01:39.201Z,14.70
2019-05-21T06:04:09.475Z,14.80
2019-05-21T06:06:41.428Z,14.90
2019-05-21T06:09:13.037Z,15.00
2019-05-21T06:11:45.387Z,15.20
2019-05-21T06:14:20.697Z,15.20
2019-05-21T06:17:00.541Z,15.30
2019-05-21T06:19:43.774Z,15.30
2019-05-21T06:22:23.996Z,15.30
2019-05-21T06:25:09.070Z,15.40
2019-05-21T06:27:35.174Z,15.50
2019-05-21T06:30:08.915Z,15.60
2019-05-21T06:33:17.450Z,15.60
2019-05-21T06:35:29.169Z,15.70
2019-05-21T06:38:16.598Z,15.80
2019-05-21T06:40:42.394Z,15.90
2019-05-21T06:43:45.144Z,15.90
2019-05-21T06:46:19.173Z,16.00
2019-05-21T06:48:57.502Z,16.10
2019-05-21T06:51:35.705Z,16.10
2019-05-21T06:54:08.674Z,16.10
2019-05-21T06:56:39.525Z,16.20
2019-05-21T06:59:25.589Z,16.20
2019-05-21T07:01:54.250Z,16.30
2019-05-21T07:04:44.521Z,16.20
2019-05-21T07:07:23.118Z,16.00
2019-05-21T07:10:07.812Z,15.80
2019-05-21T07:12:46.851Z,15.80
2019-05-21T07:15:22.356Z,15.90
2019-05-21T07:17:55.205Z,16.00
2019-05-21T07:20:37.065Z,16.10
2019-05-21T07:23:11.658Z,16.00
2019-05-21T07:25:47.597Z,16.00
2019-05-21T07:28:25.122Z,16.00
2019-05-21T07:30:58.361Z,16.00
2019-05-21T07:33:36.049Z,16.00
2019-05-21T07:36:06.676Z,16.00
2019-05-21T07:38:52.620Z,16.00
2019-05-21T07:41:10.466Z,16.00
2019-05-21T07:43:40.196Z,16.00
2019-05-21T07:46:10.048Z,16.00
2019-05-21T07:48:39.721Z,16.10
2019-05-21T07:51:09.460Z,16.20
2019-05-21T07:53:39.238Z,16.20
2019-05-21T07:56:08.944Z,16.30
2019-05-21T07:58:38.615Z,16.30
2019-05-21T08:01:08.348Z,16.30
2019-05-21T08:03:38.070Z,16.40
2019-05-21T08:06:07.829Z,16.40
2019-05-21T08:08:37.788Z,16.50
2019-05-21T08:11:08.020Z,16.60
2019-05-21T08:13:37.814Z,16.70
2019-05-21T08:16:07.494Z,16.80
2019-05-21T08:18:37.289Z,16.80
2019-05-21T08:21:07.230Z,17.00
2019-05-21T08:23:36.960Z,17.00
2019-05-21T08:26:06.698Z,17.10
2019-05-21T08:28:36.632Z,17.20
2019-05-21T08:31:06.498Z,17.30
2019-05-21T08:33:40.102Z,17.40
2019-05-21T08:36:19.030Z,17.50
2019-05-21T08:38:53.107Z,17.60
2019-05-21T08:41:28.154Z,17.70
2019-05-21T08:43:58.896Z,17.70
2019-05-21T08:46:28.716Z,17.50
2019-05-21T08:48:58.574Z,17.30
2019-05-21T08:51:29.042Z,17.30
2019-05-21T08:53:58.773Z,17.40
2019-05-21T08:56:28.560Z,17.40
2019-05-21T08:58:58.614Z,17.20
2019-05-21T09:01:28.528Z,17.30
2019-05-21T09:03:58.604Z,17.40
2019-05-21T09:06:28.639Z,17.50
2019-05-21T09:08:59.271Z,17.70
2019-05-21T09:11:29.083Z,17.70
2019-05-21T09:13:59.127Z,17.70
2019-05-21T09:16:28.894Z,17.80
2019-05-21T09:18:58.965Z,17.70
2019-05-21T09:21:28.778Z,17.70
2019-05-21T09:23:58.556Z,17.70
2019-05-21T09:26:28.642Z,17.60
2019-05-21T09:28:58.431Z,17.60
2019-05-21T09:31:28.457Z,17.50
2019-05-21T09:33:58.526Z,17.40
2019-05-21T09:36:28.437Z,17.20
2019-05-21T09:38:58.201Z,17.20
2019-05-21T09:41:27.885Z,17.10
2019-05-21T09:43:58.206Z,17.00
2019-05-21T09:46:28.126Z,17.00
2019-05-21T09:48:57.856Z,17.00
2019-05-21T09:51:27.652Z,17.00
2019-05-21T09:53:57.444Z,16.90
2019-05-21T09:56:34.649Z,16.90
2019-05-21T09:59:13.151Z,16.80
2019-05-21T10:01:47.956Z,16.80
2019-05-21T10:04:16.726Z,16.70
2019-05-21T10:06:46.475Z,16.70
2019-05-21T10:09:17.842Z,16.60
2019-05-21T10:11:49.133Z,16.60
2019-05-21T10:14:19.142Z,16.60
2019-05-21T10:16:48.874Z,16.60
2019-05-21T10:19:18.666Z,16.70
2019-05-21T10:21:48.396Z,16.70
2019-05-21T10:24:18.238Z,16.80
2019-05-21T10:26:48.023Z,16.80
2019-05-21T10:29:17.790Z,16.80
2019-05-21T10:31:50.722Z,16.80
2019-05-21T10:34:20.808Z,16.80
2019-05-21T10:36:50.807Z,16.80
2019-05-21T10:39:20.880Z,16.90
2019-05-21T10:41:50.784Z,16.90
2019-05-21T10:44:20.523Z,16.90
2019-05-21T10:46:50.338Z,16.90
2019-05-21T10:49:20.661Z,16.90
2019-05-21T10:51:50.366Z,17.00
2019-05-21T10:54:20.180Z,17.00
2019-05-21T10:56:49.988Z,17.10
2019-05-21T10:59:19.826Z,17.10
2019-05-21T11:01:53.843Z,17.20
2019-05-21T11:04:25.574Z,17.20
2019-05-21T11:06:55.382Z,17.10
2019-05-21T11:09:25.743Z,16.80
2019-05-21T11:11:55.486Z,16.90
2019-05-21T11:14:25.559Z,16.90
2019-05-21T11:16:55.380Z,17.00
2019-05-21T11:19:26.264Z,17.10
2019-05-21T11:21:56.417Z,17.10
2019-05-21T11:24:26.529Z,17.20
2019-05-21T11:26:56.213Z,17.30
2019-05-21T11:29:26.020Z,17.30
2019-05-21T11:31:57.690Z,17.30
2019-05-21T11:34:27.262Z,17.30
2019-05-21T11:36:57.087Z,17.50
2019-05-21T11:39:27.417Z,17.50
2019-05-21T11:41:57.202Z,17.60
2019-05-21T11:44:27.143Z,17.60
2019-05-21T11:46:57.005Z,17.70
2019-05-21T11:49:27.029Z,17.70
2019-05-21T11:51:56.862Z,17.70
2019-05-21T11:54:26.594Z,17.60
2019-05-21T11:56:56.385Z,17.60
2019-05-21T11:59:26.138Z,17.50
2019-05-21T12:01:55.938Z,17.50
2019-05-21T12:04:25.777Z,17.50
2019-05-21T12:06:57.104Z,17.50
2019-05-21T12:09:26.819Z,17.50
2019-05-21T12:11:56.585Z,17.50
2019-05-21T12:14:26.343Z,17.60
2019-05-21T12:16:56.475Z,17.60
2019-05-21T12:19:26.187Z,17.70
2019-05-21T12:21:56.167Z,17.70
2019-05-21T12:24:27.628Z,17.70
2019-05-21T12:26:57.740Z,17.70
2019-05-21T12:29:27.510Z,17.70
2019-05-21T12:31:57.979Z,17.60
2019-05-21T12:34:27.729Z,17.60
2019-05-21T12:36:57.892Z,17.60
2019-05-21T12:39:27.677Z,17.60
2019-05-21T12:41:57.519Z,17.60
2019-05-21T12:44:27.375Z,17.60
2019-05-21T12:46:57.117Z,17.50
2019-05-21T12:49:27.283Z,17.40
2019-05-21T12:51:57.130Z,17.40
2019-05-21T12:54:27.142Z,17.30
2019-05-21T12:56:56.873Z,17.20
2019-05-21T12:59:26.638Z,17.20
2019-05-21T13:01:56.440Z,17.10
2019-05-21T13:04:26.257Z,17.10
2019-05-21T13:06:56.025Z,17.10
2019-05-21T13:09:32.651Z,17.10
2019-05-21T13:11:57.284Z,17.10
2019-05-21T13:14:27.043Z,17.10
2019-05-21T13:16:56.894Z,17.20
2019-05-21T13:19:26.708Z,17.20
2019-05-21T13:21:56.522Z,17.20
2019-05-21T13:24:26.733Z,17.20
2019-05-21T13:26:56.500Z,17.20
2019-05-21T13:29:26.553Z,17.20
2019-05-21T13:31:56.451Z,17.20
2019-05-21T13:34:27.004Z,17.20
2019-05-21T13:36:57.103Z,17.30
2019-05-21T13:39:27.119Z,17.40
2019-05-21T13:41:56.861Z,17.40
2019-05-21T13:44:26.751Z,17.40
2019-05-21T13:46:56.726Z,17.30
2019-05-21T13:49:27.044Z,17.20
2019-05-21T13:51:57.278Z,17.20
2019-05-21T13:54:27.280Z,17.20
2019-05-21T13:56:57.115Z,17.20
2019-05-21T13:59:27.403Z,17.10
2019-05-21T14:01:57.416Z,17.10
2019-05-21T14:04:27.197Z,17.10
2019-05-21T14:06:57.135Z,17.20
2019-05-21T14:09:28.722Z,17.20
2019-05-21T14:11:59.125Z,17.30
2019-05-21T14:14:29.417Z,17.40
2019-05-21T14:16:59.732Z,17.50
2019-05-21T14:19:29.468Z,17.50
2019-05-21T14:21:59.355Z,17.50
2019-05-21T14:24:29.592Z,17.50
2019-05-21T14:26:59.829Z,17.50
2019-05-21T14:29:29.602Z,17.60
2019-05-21T14:31:59.848Z,17.60
2019-05-21T14:34:29.841Z,17.50
2019-05-21T14:37:01.106Z,17.50
2019-05-21T14:39:31.252Z,17.40
2019-05-21T14:42:01.106Z,17.40
2019-05-21T14:44:30.947Z,17.40
2019-05-21T14:47:03.269Z,17.30
2019-05-21T14:49:33.094Z,17.40
2019-05-21T14:52:03.185Z,17.40
2019-05-21T14:54:33.366Z,17.40
2019-05-21T14:57:05.888Z,17.40
2019-05-21T15:02:49.087Z,17.40
2019-05-21T15:05:19.193Z,17.40
2019-05-21T15:07:55.067Z,17.40
2019-05-21T15:10:47.215Z,17.50
2019-05-21T15:13:08.759Z,17.40
2019-05-21T15:15:36.803Z,17.40
2019-05-21T15:18:06.796Z,17.40
2019-05-21T15:20:47.093Z,17.50
2019-05-21T15:23:16.890Z,17.50
2019-05-21T15:25:47.074Z,17.50
2019-05-21T15:28:17.124Z,17.60
2019-05-21T15:30:48.797Z,17.70
2019-05-21T15:33:18.574Z,17.70
2019-05-21T15:35:49.819Z,17.70
2019-05-21T15:38:21.155Z,17.70
2019-05-21T15:41:08.415Z,17.70
2019-05-21T15:43:22.969Z,17.80
2019-05-21T15:45:52.832Z,17.70
2019-05-21T15:48:26.330Z,17.70
2019-05-21T15:51:04.650Z,17.80
2019-05-21T15:53:55.375Z,17.80
2019-05-21T15:56:25.233Z,17.70
2019-05-21T15:59:05.379Z,17.70
2019-05-21T16:01:40.568Z,17.70
2019-05-21T16:04:16.079Z,17.60
2019-05-21T16:06:44.420Z,17.60
2019-05-21T16:09:14.152Z,17.70
2019-05-21T16:11:43.998Z,17.60
2019-05-21T16:14:13.803Z,17.60
2019-05-21T16:16:46.671Z,17.60
2019-05-21T16:19:16.480Z,17.50
2019-05-21T16:21:50.600Z,17.50
2019-05-21T16:24:20.411Z,17.50
2019-05-21T16:26:50.139Z,17.50
2019-05-21T16:29:19.831Z,17.60
2019-05-21T16:31:49.945Z,17.50
2019-05-21T16:34:19.667Z,17.50
2019-05-21T16:36:49.477Z,17.50
2019-05-21T16:39:21.226Z,17.50
2019-05-21T16:41:51.024Z,17.50
2019-05-21T16:44:20.825Z,17.50
2019-05-21T16:46:50.621Z,17.50
2019-05-21T16:49:20.423Z,17.50
2019-05-21T16:51:50.225Z,17.50
2019-05-21T16:54:20.019Z,17.40
2019-05-21T16:56:50.314Z,17.50
2019-05-21T16:59:22.183Z,17.40
2019-05-21T17:01:52.149Z,17.40
2019-05-21T17:04:21.991Z,17.30
2019-05-21T17:06:58.181Z,17.30
2019-05-21T17:09:28.446Z,17.20
2019-05-21T17:12:00.329Z,17.20
2019-05-21T17:14:30.672Z,17.10
2019-05-21T17:17:00.797Z,17.00
2019-05-21T17:19:30.935Z,17.00
2019-05-21T17:22:00.929Z,17.00
2019-05-21T17:24:33.022Z,17.10
2019-05-21T17:27:10.133Z,17.00
2019-05-21T17:29:40.275Z,17.00
2019-05-21T17:32:10.253Z,16.90
2019-05-21T17:34:47.894Z,16.80
2019-05-21T17:37:19.024Z,16.80
2019-05-21T17:39:49.182Z,16.80
2019-05-21T17:42:19.041Z,16.90
2019-05-21T17:44:49.010Z,17.00
2019-05-21T17:47:19.227Z,16.90
2019-05-21T17:49:49.151Z,16.80
2019-05-21T17:52:19.570Z,16.80
2019-05-21T17:54:56.769Z,16.80
2019-05-21T17:57:22.079Z,16.80
2019-05-21T17:59:52.051Z,16.80
2019-05-21T18:02:23.197Z,16.70
2019-05-21T18:04:56.997Z,16.60
2019-05-21T18:07:26.852Z,16.70
2019-05-21T18:10:00.654Z,16.60
2019-05-21T18:12:32.358Z,16.70
2019-05-21T18:15:06.734Z,16.70
2019-05-21T18:17:37.549Z,16.70
2019-05-21T18:20:08.546Z,16.70
2019-05-21T18:22:40.161Z,16.80
2019-05-21T18:25:14.272Z,16.80
2019-05-21T18:27:44.746Z,16.70
2019-05-21T18:30:15.883Z,16.80
2019-05-21T18:32:45.852Z,16.70
2019-05-21T18:35:16.086Z,16.70
2019-05-21T18:37:55.707Z,16.70
2019-05-21T18:40:26.652Z,16.60
2019-05-21T18:42:56.638Z,16.60
2019-05-21T18:45:26.414Z,16.70
2019-05-21T18:48:00.727Z,16.60
2019-05-21T18:50:36.254Z,16.50
2019-05-21T18:53:01.851Z,16.60
2019-05-21T18:55:31.751Z,16.60
2019-05-21T18:58:01.586Z,16.70
2019-05-21T19:00:31.859Z,16.60
2019-05-21T19:03:04.897Z,16.60
2019-05-21T19:05:35.145Z,16.60
2019-05-21T19:08:09.726Z,16.60
2019-05-21T19:10:42.519Z,16.60
2019-05-21T19:13:12.407Z,16.60
2019-05-21T19:15:42.713Z,16.50
2019-05-21T19:18:12.529Z,16.50
2019-05-21T19:20:42.263Z,16.50
2019-05-21T19:23:12.253Z,16.50
2019-05-21T19:25:41.988Z,16.40
2019-05-21T19:28:11.949Z,16.40
2019-05-21T19:30:42.027Z,16.40
2019-05-21T19:33:12.487Z,16.40
2019-05-21T19:35:42.282Z,16.40
2019-05-21T19:38:11.972Z,16.50
2019-05-21T19:40:41.772Z,16.40
2019-05-21T19:43:14.093Z,16.40
2019-05-21T19:45:43.944Z,16.40
2019-05-21T19:48:13.765Z,16.40
2019-05-21T19:50:43.869Z,16.40
2019-05-21T19:53:13.618Z,16.40
2019-05-21T19:55:47.191Z,16.40
2019-05-21T19:58:17.073Z,16.30
2019-05-21T20:00:48.583Z,16.30
2019-05-21T20:03:19.126Z,16.30
2019-05-21T20:05:50.593Z,16.20
2019-05-21T20:08:20.624Z,16.20
2019-05-21T20:10:53.219Z,16.20
2019-05-21T20:13:32.258Z,16.20
2019-05-21T20:15:55.855Z,16.20
2019-05-21T20:18:26.094Z,16.10
2019-05-21T20:20:57.117Z,16.10
2019-05-21T20:23:27.178Z,16.10
2019-05-21T20:25:57.321Z,16.10
2019-05-21T20:28:27.232Z,16.00
2019-05-21T20:30:57.468Z,16.00
2019-05-21T20:33:28.435Z,16.00
2019-05-21T20:35:59.011Z,16.00
2019-05-21T20:38:29.637Z,15.90
2019-05-21T20:40:59.410Z,16.00
2019-05-21T20:43:29.273Z,16.00
2019-05-21T20:45:59.875Z,16.00
2019-05-21T20:48:37.450Z,16.00
2019-05-21T20:51:09.138Z,16.00
2019-05-21T20:53:39.083Z,16.00
2019-05-21T20:56:09.140Z,16.00
2019-05-21T20:58:39.402Z,16.00
2019-05-21T21:01:09.589Z,16.00
2019-05-21T21:03:40.732Z,16.00
2019-05-21T21:06:12.691Z,16.10
2019-05-21T21:08:44.615Z,16.10
2019-05-21T21:11:15.688Z,16.10
2019-05-21T21:13:46.145Z,16.10
2019-05-21T21:16:16.622Z,16.00
2019-05-21T21:18:48.439Z,16.10
2019-05-21T21:21:18.902Z,16.00
2019-05-21T21:23:50.657Z,16.00
2019-05-21T21:26:20.925Z,16.00
2019-05-21T21:28:50.758Z,16.10
2019-05-21T21:31:20.855Z,16.10
2019-05-21T21:33:57.317Z,16.10
2019-05-21T21:36:28.694Z,16.10
2019-05-21T21:38:59.694Z,16.10
2019-05-21T21:41:30.061Z,16.10
2019-05-21T21:44:00.098Z,16.00
2019-05-21T21:46:29.830Z,16.00
2019-05-21T21:49:00.225Z,16.10
2019-05-21T21:51:30.089Z,16.00
2019-05-21T21:54:00.267Z,16.00
2019-05-21T21:56:31.333Z,16.10
2019-05-21T21:59:01.297Z,16.00
2019-05-21T22:01:41.765Z,16.10
2019-05-21T22:04:14.025Z,16.10
2019-05-21T22:06:45.920Z,16.10
2019-05-21T22:09:18.165Z,16.10
2019-05-21T22:11:49.330Z,16.10
2019-05-21T22:14:19.443Z,16.10
2019-05-21T22:16:51.828Z,16.10
2019-05-21T22:19:23.085Z,16.10
2019-05-21T22:21:53.199Z,16.10
2019-05-21T22:24:23.683Z,16.20
2019-05-21T22:26:53.979Z,16.20
2019-05-21T22:29:23.873Z,16.20
2019-05-21T22:31:53.735Z,16.20
2019-05-21T22:34:23.802Z,16.20
2019-05-21T22:36:53.710Z,16.20
2019-05-21T22:39:24.044Z,16.20
2019-05-21T22:41:53.893Z,16.20
2019-05-21T22:44:23.708Z,16.20
2019-05-21T22:46:53.560Z,16.20
2019-05-21T22:49:23.722Z,16.20
2019-05-21T22:51:53.493Z,16.20
2019-05-21T22:54:23.639Z,16.20
2019-05-21T22:56:53.424Z,16.20
2019-05-21T22:59:23.186Z,16.20
2019-05-21T23:01:55.070Z,16.20
2019-05-21T23:04:25.492Z,16.10
2019-05-21T23:06:55.349Z,16.10
2019-05-21T23:09:25.107Z,16.00
2019-05-21T23:11:55.281Z,16.00
2019-05-21T23:14:25.264Z,15.90
2019-05-21T23:16:55.626Z,15.80
2019-05-21T23:19:27.017Z,15.70
2019-05-21T23:21:57.950Z,15.60
2019-05-21T23:24:29.681Z,15.50
2019-05-21T23:26:59.507Z,15.50
2019-05-21T23:29:29.336Z,15.40
2019-05-21T23:31:59.167Z,15.40
2019-05-21T23:34:31.651Z,15.40
2019-05-21T23:37:02.712Z,15.40
2019-05-21T23:39:34.163Z,15.40
2019-05-21T23:42:05.920Z,15.40
2019-05-21T23:44:36.281Z,15.40
2019-05-21T23:47:08.360Z,15.40
2019-05-21T23:49:38.845Z,15.40
2019-05-21T23:52:08.730Z,15.40
2019-05-21T23:54:38.471Z,15.40
2019-05-21T23:57:10.530Z,15.40
2019-05-21T23:59:41.060Z,15.40
